Time;durP1;ratioP1;P1;durP2;ratioP2;P2;SDS_P1;SDS_P2;PMS_P1;PMS_P2;Temp;Humidity;BMP_temperature;BMP_pressure;BME280_temperature;BME280_humidity;BME280_pressure;Samples;Min_cycle;Max_cycle;Signal;HPM_P1;HPM_P2
2022/01/01 00:00:56;;;;;;;;;;;;;;;17.74;59.48;100638.03;2094103;28;19908;-45
2022/01/01 00:01:56;;;;;;;;;;;;;;;17.74;59.37;100638.03;2094729;28;20080;-46
2022/01/01 00:02:56;;;;;;;;;;;;;;;17.73;59.61;100637.16;2083257;28;20346;-46
2022/01/01 00:03:57;;;;;;;;;;;;;;;17.74;59.46;100641.63;2085988;28;20506;-47
2022/01/01 00:04:58;;;;;;;;;;;;;;;17.73;59.40;100639.88;2097609;28;19940;-46
2022/01/01 00:05:58;;;;;;;;;;;;;;;17.73;59.38;100637.16;2090647;28;19916;-46
2022/01/01 00:06:58;;;;;;;;;;;;;;;17.72;59.44;100631.84;2095235;28;19923;-45
2022/01/01 00:08:00;;;;;;;;;;;;;;;17.73;59.44;100636.28;2095614;28;19930;-46
2022/01/01 00:09:01;;;;;;;;;;;;;;;17.72;59.46;100635.44;2096315;28;20010;-45
2022/01/01 00:10:03;;;;;;;;;;;;;;;17.73;59.23;100625.38;2092155;28;20525;-45
2022/01/01 00:11:03;;;;;;;;;;;;;;;17.72;59.37;100632.72;2093745;28;19916;-44
2022/01/01 00:12:04;;;;;;;;;;;;;;;17.73;59.30;100641.75;2096314;28;19923;-44
2022/01/01 00:13:04;;;;;;;;;;;;;;;17.72;59.24;100629.97;2093700;28;20290;-46
2022/01/01 00:14:05;;;;;;;;;;;;;;;17.72;59.33;100626.38;2094105;28;19916;-45
2022/01/01 00:15:05;;;;;;;;;;;;;;;17.72;59.32;100637.28;2093868;28;20579;-46
2022/01/01 00:16:09;;;;;;;;;;;;;;;17.72;59.15;100629.13;2087058;28;20179;-46
2022/01/01 00:17:09;;;;;;;;;;;;;;;17.72;59.20;100629.97;2088227;28;19920;-45
2022/01/01 00:18:10;;;;;;;;;;;;;;;17.71;59.44;100630.09;2088665;28;19916;-46
2022/01/01 00:19:10;;;;;;;;;;;;;;;17.71;59.46;100630.09;2089525;28;20013;-46
2022/01/01 00:20:11;;;;;;;;;;;;;;;17.72;59.21;100632.72;2090940;28;19916;-46
2022/01/01 00:21:12;;;;;;;;;;;;;;;17.70;59.14;100631.09;2087839;28;19946;-46
2022/01/01 00:22:12;;;;;;;;;;;;;;;17.71;59.27;100628.25;2090871;28;20250;-47
2022/01/01 00:23:12;;;;;;;;;;;;;;;17.70;59.22;100629.22;2087018;28;20779;-46
2022/01/01 00:24:13;;;;;;;;;;;;;;;17.70;59.43;100623.78;2085044;28;20317;-47
2022/01/01 00:25:13;;;;;;;;;;;;;;;17.72;59.27;100626.38;2094647;28;19927;-46
2022/01/01 00:26:14;;;;;;;;;;;;;;;17.69;59.27;100619.34;2088156;28;19917;-47
2022/01/01 00:27:15;;;;;;;;;;;;;;;17.69;59.26;100622.06;2082768;28;19917;-46
2022/01/01 00:28:15;;;;;;;;;;;;;;;17.70;59.22;100629.22;2075473;28;19939;-46
2022/01/01 00:29:15;;;;;;;;;;;;;;;17.70;59.24;100631.09;2089303;28;19962;-46
2022/01/01 00:30:16;;;;;;;;;;;;;;;17.71;59.46;100627.38;2081345;28;19974;-46
2022/01/01 00:31:16;;;;;;;;;;;;;;;17.70;59.28;100631.09;2088495;28;19959;-46
2022/01/01 00:32:17;;;;;;;;;;;;;;;17.70;59.29;100631.09;2088700;28;19923;-46
2022/01/01 00:33:17;;;;;;;;;;;;;;;17.69;59.09;100624.78;2083471;28;20188;-46
2022/01/01 00:34:17;;;;;;;;;;;;;;;17.70;59.33;100633.81;2086663;28;19950;-46
2022/01/01 00:35:17;;;;;;;;;;;;;;;17.69;59.15;100630.25;2091037;28;19908;-46
2022/01/01 00:36:18;;;;;;;;;;;;;;;17.69;59.29;100629.38;2089146;28;19917;-45
2022/01/01 00:37:18;;;;;;;;;;;;;;;17.69;59.38;100629.38;2094592;28;20327;-45
2022/01/01 00:38:19;;;;;;;;;;;;;;;17.69;59.10;100629.38;2076172;28;19977;-45
2022/01/01 00:39:19;;;;;;;;;;;;;;;17.68;59.16;100622.19;2077220;28;20019;-45
2022/01/01 00:40:20;;;;;;;;;;;;;;;17.69;58.99;100629.38;2085461;28;19962;-45
2022/01/01 00:41:20;;;;;;;;;;;;;;;17.69;59.18;100623.94;2087046;28;20015;-45
2022/01/01 00:42:21;;;;;;;;;;;;;;;17.67;59.36;100615.88;2087046;28;19920;-45
2022/01/01 00:43:21;;;;;;;;;;;;;;;17.67;59.21;100610.41;2084852;28;20669;-45
2022/01/01 00:44:22;;;;;;;;;;;;;;;17.68;59.33;100622.19;2084592;28;21331;-44
2022/01/01 00:45:23;;;;;;;;;;;;;;;17.67;59.25;100609.56;2077930;28;20002;-45
2022/01/01 00:46:23;;;;;;;;;;;;;;;17.68;59.19;100611.28;2081191;28;20369;-44
2022/01/01 00:47:23;;;;;;;;;;;;;;;17.68;59.35;100614.00;2077173;28;19916;-44
2022/01/01 00:48:24;;;;;;;;;;;;;;;17.67;59.02;100606.81;2078335;28;19998;-44
2022/01/01 00:49:24;;;;;;;;;;;;;;;17.67;59.36;100604.09;2082548;28;20169;-44
2022/01/01 00:50:24;;;;;;;;;;;;;;;17.67;59.17;100604.97;2085605;28;19966;-47
2022/01/01 00:51:25;;;;;;;;;;;;;;;17.68;59.17;100614.00;2082704;28;19959;-44
2022/01/01 00:52:25;;;;;;;;;;;;;;;17.67;59.19;100607.69;2081493;28;20304;-45
2022/01/01 00:53:25;;;;;;;;;;;;;;;17.66;59.05;100605.94;2085479;28;19916;-45
2022/01/01 00:54:26;;;;;;;;;;;;;;;17.67;59.35;100598.66;2085632;28;20006;-44
2022/01/01 00:55:26;;;;;;;;;;;;;;;17.67;59.19;100598.66;2078630;28;19917;-44
2022/01/01 00:56:26;;;;;;;;;;;;;;;17.67;59.26;100598.66;2084800;28;19952;-44
2022/01/01 00:57:27;;;;;;;;;;;;;;;17.67;59.12;100604.09;2085574;28;19924;-44
2022/01/01 00:58:27;;;;;;;;;;;;;;;17.66;59.12;100599.63;2077401;28;19916;-45
2022/01/01 00:59:29;;;;;;;;;;;;;;;17.67;59.04;100595.91;2081658;28;20593;-44
2022/01/01 01:00:29;;;;;;;;;;;;;;;17.66;59.10;100592.31;2082272;28;20316;-43
2022/01/01 01:01:29;;;;;;;;;;;;;;;17.65;59.08;100590.59;2081657;28;19912;-46
2022/01/01 01:02:31;;;;;;;;;;;;;;;17.65;59.13;100596.03;2086521;28;19916;-44
2022/01/01 01:03:31;;;;;;;;;;;;;;;17.65;59.13;100596.03;2079419;28;20362;-43
2022/01/01 01:04:32;;;;;;;;;;;;;;;17.65;59.20;100596.03;2089892;28;19917;-44
2022/01/01 01:05:32;;;;;;;;;;;;;;;17.65;59.20;100595.19;2084973;28;19928;-44
2022/01/01 01:06:32;;;;;;;;;;;;;;;17.66;59.10;100596.91;2078186;28;19916;-45
2022/01/01 01:07:32;;;;;;;;;;;;;;;17.65;58.90;100589.72;2080931;28;20926;-45
2022/01/01 01:08:33;;;;;;;;;;;;;;;17.64;59.16;100587.97;2078522;28;20276;-45
2022/01/01 01:09:33;;;;;;;;;;;;;;;17.65;58.85;100589.72;2080124;28;20030;-44
2022/01/01 01:10:34;;;;;;;;;;;;;;;17.64;59.03;100590.69;2081342;28;20330;-44
2022/01/01 01:11:41;;;;;;;;;;;;;;;17.64;59.17;100587.97;2078202;28;20261;-44
2022/01/01 01:12:47;;;;;;;;;;;;;;;17.65;58.79;100584.28;2078860;28;19930;-43
2022/01/01 01:13:56;;;;;;;;;;;;;;;17.64;59.04;100585.25;2091526;28;20296;-45
2022/01/01 01:14:56;;;;;;;;;;;;;;;17.63;59.08;100587.13;2084180;28;19985;-44
2022/01/01 01:15:56;;;;;;;;;;;;;;;17.63;59.16;100587.13;2086740;28;19963;-44
2022/01/01 01:16:57;;;;;;;;;;;;;;;17.63;59.15;100586.25;2096065;28;19923;-43
2022/01/01 01:17:57;;;;;;;;;;;;;;;17.64;59.18;100587.97;2091002;28;19916;-44
2022/01/01 01:18:58;;;;;;;;;;;;;;;17.62;59.17;100585.41;2093262;28;19912;-44
2022/01/01 01:19:58;;;;;;;;;;;;;;;17.63;59.05;100583.53;2093622;28;20725;-45
2022/01/01 01:20:58;;;;;;;;;;;;;;;17.64;58.81;100582.53;2091492;28;20375;-44
2022/01/01 01:21:59;;;;;;;;;;;;;;;17.62;58.96;100576.34;2094197;28;19961;-44
2022/01/01 01:22:59;;;;;;;;;;;;;;;17.62;58.97;100576.34;2090880;28;20819;-44
2022/01/01 01:24:01;;;;;;;;;;;;;;;17.62;58.98;100573.63;2091856;28;19947;-44
2022/01/01 01:25:01;;;;;;;;;;;;;;;17.61;58.97;100572.75;2093011;28;20719;-44
2022/01/01 01:26:02;;;;;;;;;;;;;;;17.62;58.89;100573.63;2090157;28;19917;-45
2022/01/01 01:27:04;;;;;;;;;;;;;;;17.62;59.07;100570.91;2094999;28;19918;-44
2022/01/01 01:28:08;;;;;;;;;;;;;;;17.61;59.07;100567.28;2093220;28;19916;-45
2022/01/01 01:29:08;;;;;;;;;;;;;;;17.61;58.99;100567.28;2093012;28;19993;-45
2022/01/01 01:30:11;;;;;;;;;;;;;;;17.61;58.98;100567.28;2092980;28;19916;-45
2022/01/01 01:31:11;;;;;;;;;;;;;;;17.60;58.91;100565.56;2086165;28;19916;-45
2022/01/01 01:32:11;;;;;;;;;;;;;;;17.61;59.00;100566.44;2092395;28;19934;-44
2022/01/01 01:33:12;;;;;;;;;;;;;;;17.62;58.98;100573.63;2089803;28;19912;-44
2022/01/01 01:34:12;;;;;;;;;;;;;;;17.61;59.03;100569.16;2088902;28;20212;-43
2022/01/01 01:35:13;;;;;;;;;;;;;;;17.61;58.88;100566.44;2092101;28;19981;-43
2022/01/01 01:36:14;;;;;;;;;;;;;;;17.61;59.12;100564.56;2093953;28;20508;-44
2022/01/01 01:37:14;;;;;;;;;;;;;;;17.61;59.03;100560.97;2084542;28;20378;-45
2022/01/01 01:38:14;;;;;;;;;;;;;;;17.60;59.12;100565.56;2082979;28;19928;-44
2022/01/01 01:39:15;;;;;;;;;;;;;;;17.61;58.86;100566.44;2086704;28;19920;-44
2022/01/01 01:40:15;;;;;;;;;;;;;;;17.60;58.90;100564.72;2089084;28;19948;-44
2022/01/01 01:41:15;;;;;;;;;;;;;;;17.60;58.87;100567.44;2088502;28;20647;-45
2022/01/01 01:42:16;;;;;;;;;;;;;;;17.59;59.02;100563.84;2094334;28;20292;-44
2022/01/01 01:43:16;;;;;;;;;;;;;;;17.60;58.92;100571.03;2088691;28;19916;-45
2022/01/01 01:44:26;;;;;;;;;;;;;;;17.59;59.05;100569.31;2090447;28;19926;-44
2022/01/01 01:45:28;;;;;;;;;;;;;;;17.60;58.93;100564.72;2085638;28;19920;-44
2022/01/01 01:46:29;;;;;;;;;;;;;;;17.59;58.99;100569.31;2089795;28;19943;-45
2022/01/01 01:47:31;;;;;;;;;;;;;;;17.59;59.14;100569.31;2092559;28;19923;-44
2022/01/01 01:48:32;;;;;;;;;;;;;;;17.58;59.05;100571.13;2088262;28;19962;-45
2022/01/01 01:49:33;;;;;;;;;;;;;;;17.60;58.87;100564.72;2092305;28;20842;-44
2022/01/01 01:50:37;;;;;;;;;;;;;;;17.58;58.76;100565.69;2094177;28;19908;-44
2022/01/01 01:51:37;;;;;;;;;;;;;;;17.59;58.74;100572.03;2083965;28;19932;-45
2022/01/01 01:52:39;;;;;;;;;;;;;;;17.59;59.04;100569.31;2092753;28;20230;-44
2022/01/01 01:53:39;;;;;;;;;;;;;;;17.58;58.79;100573.88;2094686;28;19922;-44
2022/01/01 01:54:40;;;;;;;;;;;;;;;17.57;58.91;100566.69;2088889;28;19919;-44
2022/01/01 01:55:40;;;;;;;;;;;;;;;17.57;58.88;100572.16;2093491;28;19916;-44
2022/01/01 01:56:41;;;;;;;;;;;;;;;17.58;58.67;100567.56;2091442;28;20230;-44
2022/01/01 01:57:42;;;;;;;;;;;;;;;17.57;58.93;100566.69;2084370;28;19928;-44
2022/01/01 01:58:43;;;;;;;;;;;;;;;17.57;58.74;100566.69;2078208;28;19917;-45
2022/01/01 01:59:44;;;;;;;;;;;;;;;17.57;58.98;100565.84;2079290;28;19917;-44
2022/01/01 02:01:57;;;;;;;;;;;;;;;17.56;58.96;100570.44;2086954;28;19920;-44
2022/01/01 02:02:57;;;;;;;;;;;;;;;17.56;58.72;100575.88;2085313;28;20011;-44
2022/01/01 02:03:58;;;;;;;;;;;;;;;17.57;58.95;100569.41;2087089;28;20354;-44
2022/01/01 02:04:58;;;;;;;;;;;;;;;17.55;58.78;100573.28;2091608;28;20152;-43
2022/01/01 02:05:59;;;;;;;;;;;;;;;17.56;58.95;100572.25;2088030;28;20559;-44
2022/01/01 02:07:00;;;;;;;;;;;;;;;17.55;58.73;100574.13;2092331;28;19917;-45
2022/01/01 02:08:00;;;;;;;;;;;;;;;17.56;58.65;100570.44;2092766;28;20364;-45
2022/01/01 02:09:01;;;;;;;;;;;;;;;17.55;58.69;100570.53;2091449;28;20442;-44
2022/01/01 02:10:02;;;;;;;;;;;;;;;17.55;58.85;100567.81;2084779;28;20328;-43
2022/01/01 02:11:03;;;;;;;;;;;;;;;17.54;58.88;100577.88;2089658;28;20303;-44
2022/01/01 02:12:04;;;;;;;;;;;;;;;17.55;58.85;100574.13;2082598;28;19908;-44
2022/01/01 02:13:16;;;;;;;;;;;;;;;17.55;58.76;100574.13;2092606;28;19980;-44
2022/01/01 02:14:24;;;;;;;;;;;;;;;17.55;58.71;100574.13;2086548;28;19917;-44
2022/01/01 02:15:40;;;;;;;;;;;;;;;17.54;58.67;100566.97;2085636;28;19931;-44
2022/01/01 02:17:08;;;;;;;;;;;;;;;17.55;58.88;100571.41;2093140;28;19915;-44
2022/01/01 02:18:09;;;;;;;;;;;;;;;17.54;58.78;100572.41;2089003;28;19973;-45
2022/01/01 02:19:09;;;;;;;;;;;;;;;17.55;58.81;100568.69;2084149;28;19921;-44
2022/01/01 02:20:12;;;;;;;;;;;;;;;17.54;58.84;100575.13;2082657;28;19916;-43
2022/01/01 02:21:13;;;;;;;;;;;;;;;17.54;58.82;100571.53;2094024;28;19923;-45
2022/01/01 02:22:14;;;;;;;;;;;;;;;17.55;58.77;100578.72;2090882;28;19950;-44
2022/01/01 02:23:14;;;;;;;;;;;;;;;17.53;58.65;100573.38;2093753;28;19969;-44
2022/01/01 02:24:15;;;;;;;;;;;;;;;17.54;58.73;100577.88;2092705;28;19916;-45
2022/01/01 02:25:16;;;;;;;;;;;;;;;17.54;58.64;100576.97;2085470;28;20487;-44
2022/01/01 02:26:16;;;;;;;;;;;;;;;17.53;58.63;100578.84;2082123;28;19971;-44
2022/01/01 02:27:17;;;;;;;;;;;;;;;17.52;58.73;100585.31;2080077;28;19916;-44
2022/01/01 02:28:17;;;;;;;;;;;;;;;17.53;58.57;100578.84;2085734;28;20212;-44
2022/01/01 02:29:18;;;;;;;;;;;;;;;17.53;58.59;100576.13;2091326;28;19916;-44
2022/01/01 02:30:19;;;;;;;;;;;;;;;17.54;58.72;100580.59;2093978;28;19916;-42
2022/01/01 02:31:19;;;;;;;;;;;;;;;17.51;58.83;100583.56;2088705;28;19921;-44
2022/01/01 02:32:19;;;;;;;;;;;;;;;17.53;58.62;100576.13;2091005;28;20436;-44
2022/01/01 02:33:20;;;;;;;;;;;;;;;17.52;58.73;100585.31;2092338;28;20002;-43
2022/01/01 02:34:20;;;;;;;;;;;;;;;17.53;58.57;100577.97;2091895;28;20369;-44
2022/01/01 02:35:21;;;;;;;;;;;;;;;17.52;58.77;100582.56;2086517;28;19916;-45
2022/01/01 02:36:31;;;;;;;;;;;;;;;17.51;58.78;100589.00;2090571;28;19916;-44
2022/01/01 02:37:31;;;;;;;;;;;;;;;17.52;58.92;100585.31;2094699;28;20400;-45
2022/01/01 02:38:32;;;;;;;;;;;;;;;17.51;58.57;100588.13;2095085;28;19938;-44
2022/01/01 02:39:33;;;;;;;;;;;;;;;17.51;58.67;100586.28;2087687;28;20019;-44
2022/01/01 02:40:33;;;;;;;;;;;;;;;17.52;58.72;100587.16;2092968;28;19920;-45
2022/01/01 02:41:33;;;;;;;;;;;;;;;17.51;58.82;100594.44;2093987;28;19923;-43
2022/01/01 02:42:34;;;;;;;;;;;;;;;17.51;58.76;100591.72;2087170;28;19923;-44
2022/01/01 02:43:44;;;;;;;;;;;;;;;17.51;58.58;100589.00;2093264;28;20515;-44
2022/01/01 02:44:45;;;;;;;;;;;;;;;17.50;58.59;100590.00;2091603;28;20062;-43
2022/01/01 02:45:45;;;;;;;;;;;;;;;17.50;58.81;100587.28;2095625;28;19920;-43
2022/01/01 02:46:45;;;;;;;;;;;;;;;17.52;58.76;100587.16;2093239;28;20382;-44
2022/01/01 02:47:46;;;;;;;;;;;;;;;17.50;58.67;100587.28;2089753;28;20272;-44
2022/01/01 02:48:46;;;;;;;;;;;;;;;17.51;58.66;100590.88;2092953;28;20345;-44
2022/01/01 02:49:46;;;;;;;;;;;;;;;17.48;58.51;100583.81;2095338;28;19923;-44
2022/01/01 02:50:50;;;;;;;;;;;;;;;17.50;58.73;100581.84;2090547;28;19923;-44
2022/01/01 02:51:51;;;;;;;;;;;;;;;17.50;58.70;100591.88;2083579;28;20070;-44
2022/01/01 02:52:52;;;;;;;;;;;;;;;17.49;58.68;100591.00;2083832;28;19916;-44
2022/01/01 02:53:52;;;;;;;;;;;;;;;17.49;58.75;100591.00;2090845;28;19920;-44
2022/01/01 02:54:52;;;;;;;;;;;;;;;17.50;58.76;100598.19;2093762;28;20223;-45
2022/01/01 02:55:53;;;;;;;;;;;;;;;17.49;58.91;100596.47;2090006;28;19923;-45
2022/01/01 02:56:53;;;;;;;;;;;;;;;17.49;58.71;100595.56;2091475;28;19969;-44
2022/01/01 02:57:54;;;;;;;;;;;;;;;17.49;58.84;100590.13;2093170;28;19956;-44
2022/01/01 02:58:54;;;;;;;;;;;;;;;17.48;58.81;100594.72;2091597;28;19931;-44
2022/01/01 02:59:55;;;;;;;;;;;;;;;17.49;58.60;100595.56;2093625;28;20008;-44
2022/01/01 03:00:56;;;;;;;;;;;;;;;17.47;58.47;100587.53;2092860;28;19977;-44
2022/01/01 03:01:56;;;;;;;;;;;;;;;17.48;58.61;100589.25;2093386;28;19915;-44
2022/01/01 03:02:57;;;;;;;;;;;;;;;17.48;58.70;100589.25;2099415;28;19904;-43
2022/01/01 03:03:57;;;;;;;;;;;;;;;17.48;58.80;100589.25;2095021;28;19904;-44
2022/01/01 03:04:57;;;;;;;;;;;;;;;17.48;58.52;100600.16;2095887;28;19924;-44
2022/01/01 03:05:58;;;;;;;;;;;;;;;17.47;58.55;100592.13;2083070;28;20281;-43
2022/01/01 03:06:59;;;;;;;;;;;;;;;17.48;58.64;100594.72;2085436;28;20257;-44
2022/01/01 03:07:59;;;;;;;;;;;;;;;17.47;58.42;100582.09;2087079;28;19916;-43
2022/01/01 03:09:00;;;;;;;;;;;;;;;17.46;58.43;100591.25;2086291;28;20636;-44
2022/01/01 03:10:00;;;;;;;;;;;;;;;17.47;58.62;100587.53;2088631;28;20374;-45
2022/01/01 03:11:02;;;;;;;;;;;;;;;17.47;58.61;100584.81;2090409;28;19916;-45
2022/01/01 03:12:07;;;;;;;;;;;;;;;17.47;58.38;100586.69;2091003;28;19909;-45
2022/01/01 03:13:07;;;;;;;;;;;;;;;17.45;58.45;100586.81;2089185;28;19951;-45
2022/01/01 03:14:08;;;;;;;;;;;;;;;17.46;58.56;100585.78;2088526;28;19932;-45
2022/01/01 03:15:08;;;;;;;;;;;;;;;17.46;58.51;100577.63;2090827;28;19939;-44
2022/01/01 03:16:09;;;;;;;;;;;;;;;17.46;58.52;100584.94;2086837;28;20024;-42
2022/01/01 03:17:10;;;;;;;;;;;;;;;17.46;58.60;100579.47;2084102;28;19967;-44
2022/01/01 03:18:10;;;;;;;;;;;;;;;17.45;58.65;100572.31;2082319;28;19983;-44
2022/01/01 03:19:11;;;;;;;;;;;;;;;17.45;58.61;100578.63;2087764;28;19961;-44
2022/01/01 03:20:12;;;;;;;;;;;;;;;17.45;58.67;100575.91;2102454;28;19915;-44
2022/01/01 03:21:12;;;;;;;;;;;;;;;17.45;58.76;100573.19;2092287;28;19912;-44
2022/01/01 03:22:13;;;;;;;;;;;;;;;17.45;58.38;100573.19;2094223;28;19963;-44
2022/01/01 03:23:13;;;;;;;;;;;;;;;17.45;58.59;100577.78;2088005;28;19917;-44
2022/01/01 03:24:13;;;;;;;;;;;;;;;17.45;58.70;100572.31;2083891;28;20245;-44
2022/01/01 03:25:14;;;;;;;;;;;;;;;17.44;58.56;100571.47;2088759;28;20326;-44
2022/01/01 03:26:14;;;;;;;;;;;;;;;17.45;58.33;100572.31;2092464;28;20251;-44
2022/01/01 03:27:15;;;;;;;;;;;;;;;17.45;58.54;100575.03;2089948;28;20211;-44
2022/01/01 03:28:15;;;;;;;;;;;;;;;17.44;58.34;100559.66;2093390;28;19916;-44
2022/01/01 03:29:16;;;;;;;;;;;;;;;17.44;58.49;100571.47;2095141;28;20012;-44
2022/01/01 03:30:16;;;;;;;;;;;;;;;17.44;58.63;100560.56;2100426;28;19957;-44
2022/01/01 03:31:17;;;;;;;;;;;;;;;17.43;58.62;100566.97;2089456;28;19916;-44
2022/01/01 03:32:17;;;;;;;;;;;;;;;17.43;58.60;100564.25;2087632;28;19958;-45
2022/01/01 03:33:18;;;;;;;;;;;;;;;17.43;58.35;100561.53;2089275;28;19949;-45
2022/01/01 03:34:18;;;;;;;;;;;;;;;17.43;58.34;100557.94;2089257;28;19959;-45
2022/01/01 03:35:19;;;;;;;;;;;;;;;17.43;58.51;100564.25;2093147;28;20230;-44
2022/01/01 03:36:19;;;;;;;;;;;;;;;17.43;58.35;100553.34;2087799;28;19919;-43
2022/01/01 03:37:20;;;;;;;;;;;;;;;17.43;58.49;100552.50;2093664;28;19962;-45
2022/01/01 03:38:20;;;;;;;;;;;;;;;17.43;58.48;100553.34;2098031;28;20369;-44
2022/01/01 03:39:25;;;;;;;;;;;;;;;17.42;58.48;100557.09;2090094;28;19916;-45
2022/01/01 03:40:26;;;;;;;;;;;;;;;17.42;58.38;100554.34;2076794;28;20311;-43
2022/01/01 03:41:26;;;;;;;;;;;;;;;17.43;58.54;100553.34;2082989;28;19980;-44
2022/01/01 03:42:27;;;;;;;;;;;;;;;17.42;58.57;100551.63;2093761;28;19961;-44
2022/01/01 03:43:27;;;;;;;;;;;;;;;17.42;58.66;100551.63;2095005;28;19974;-44
2022/01/01 03:44:27;;;;;;;;;;;;;;;17.43;58.49;100549.78;2094802;28;19915;-44
2022/01/01 03:45:28;;;;;;;;;;;;;;;17.43;58.47;100552.50;2088315;28;19921;-44
2022/01/01 03:46:28;;;;;;;;;;;;;;;17.41;58.57;100547.16;2094857;28;20370;-44
2022/01/01 03:47:30;;;;;;;;;;;;;;;17.42;58.50;100550.75;2093535;28;19927;-44
2022/01/01 03:48:30;;;;;;;;;;;;;;;17.41;58.38;100549.88;2094113;28;19916;-44
2022/01/01 03:49:31;;;;;;;;;;;;;;;17.41;58.33;100544.44;2095658;28;19923;-44
2022/01/01 03:50:32;;;;;;;;;;;;;;;17.42;58.47;100553.47;2097926;28;20016;-44
2022/01/01 03:51:32;;;;;;;;;;;;;;;17.41;58.37;100549.88;2095210;28;19970;-44
2022/01/01 03:52:34;;;;;;;;;;;;;;;17.41;58.58;100554.47;2096433;28;19920;-44
2022/01/01 03:53:34;;;;;;;;;;;;;;;17.40;58.41;100548.16;2087492;28;19916;-44
2022/01/01 03:54:35;;;;;;;;;;;;;;;17.41;58.35;100552.59;2088052;28;19951;-44
2022/01/01 03:55:35;;;;;;;;;;;;;;;17.40;58.45;100550.91;2093581;28;19915;-45
2022/01/01 03:56:38;;;;;;;;;;;;;;;17.39;58.55;100546.41;2093750;28;19953;-44
2022/01/01 03:57:39;;;;;;;;;;;;;;;17.40;58.43;100550.91;2095542;28;20454;-45
2022/01/01 03:58:39;;;;;;;;;;;;;;;17.40;58.25;100558.22;2090134;28;19956;-44
2022/01/01 03:59:39;;;;;;;;;;;;;;;17.41;58.31;100554.47;2093616;28;19989;-45
2022/01/01 04:00:40;;;;;;;;;;;;;;;17.40;58.61;100553.63;2093964;28;19963;-45
2022/01/01 04:01:41;;;;;;;;;;;;;;;17.38;58.30;100555.59;2089266;28;20370;-44
2022/01/01 04:02:41;;;;;;;;;;;;;;;17.40;58.50;100548.16;2086910;28;19998;-45
2022/01/01 04:03:42;;;;;;;;;;;;;;;17.40;58.58;100552.75;2092016;28;19947;-44
2022/01/01 04:04:42;;;;;;;;;;;;;;;17.40;58.49;100550.03;2094781;28;19916;-44
2022/01/01 04:05:43;;;;;;;;;;;;;;;17.39;58.54;100551.88;2093954;28;19916;-44
2022/01/01 04:06:43;;;;;;;;;;;;;;;17.39;58.37;100545.56;2093946;28;19922;-44
2022/01/01 04:07:43;;;;;;;;;;;;;;;17.39;58.39;100551.88;2094298;28;19938;-43
2022/01/01 04:08:44;;;;;;;;;;;;;;;17.38;58.29;100544.69;2083856;28;19936;-44
2022/01/01 04:09:44;;;;;;;;;;;;;;;17.39;58.35;100546.41;2086607;28;19917;-44
2022/01/01 04:10:44;;;;;;;;;;;;;;;17.39;58.43;100551.88;2088548;28;19904;-44
2022/01/01 04:11:45;;;;;;;;;;;;;;;17.38;58.38;100552.88;2093089;28;19908;-44
2022/01/01 04:12:45;;;;;;;;;;;;;;;17.38;58.40;100552.88;2092201;28;19908;-44
2022/01/01 04:13:46;;;;;;;;;;;;;;;17.39;58.28;100551.00;2084439;28;19908;-43
2022/01/01 04:14:46;;;;;;;;;;;;;;;17.38;58.27;100550.16;2084442;28;20869;-45
2022/01/01 04:15:46;;;;;;;;;;;;;;;17.36;58.29;100555.72;2095593;28;19973;-44
2022/01/01 04:16:47;;;;;;;;;;;;;;;17.38;58.31;100554.75;2092115;28;20008;-44
2022/01/01 04:17:50;;;;;;;;;;;;;;;17.36;58.29;100552.13;2093497;28;21460;-44
2022/01/01 04:18:50;;;;;;;;;;;;;;;17.37;58.22;100551.16;2095532;28;20249;-44
2022/01/01 04:19:50;;;;;;;;;;;;;;;17.38;58.39;100560.19;2093069;28;19923;-44
2022/01/01 04:20:51;;;;;;;;;;;;;;;17.38;58.25;100565.63;2093886;28;19915;-44
2022/01/01 04:21:51;;;;;;;;;;;;;;;17.36;58.40;100558.44;2094110;28;19916;-44
2022/01/01 04:22:52;;;;;;;;;;;;;;;17.36;58.15;100549.41;2079009;28;20043;-44
2022/01/01 04:23:53;;;;;;;;;;;;;;;17.36;58.27;100552.13;2085527;28;19912;-44
2022/01/01 04:24:53;;;;;;;;;;;;;;;17.36;58.42;100547.53;2091813;28;19958;-45
2022/01/01 04:25:53;;;;;;;;;;;;;;;17.34;58.24;100549.56;2095235;28;19948;-45
2022/01/01 04:26:54;;;;;;;;;;;;;;;17.36;58.32;100546.69;2087799;28;19924;-44
2022/01/01 04:27:55;;;;;;;;;;;;;;;17.36;58.25;100546.69;2094243;28;20021;-45
2022/01/01 04:28:55;;;;;;;;;;;;;;;17.35;58.29;100544.97;2095022;28;19974;-44
2022/01/01 04:29:56;;;;;;;;;;;;;;;17.35;58.30;100553.13;2092324;28;19928;-44
2022/01/01 04:30:56;;;;;;;;;;;;;;;17.35;58.14;100551.28;2092204;28;19912;-44
2022/01/01 04:31:57;;;;;;;;;;;;;;;17.35;58.36;100553.13;2095230;28;19960;-44
2022/01/01 04:32:58;;;;;;;;;;;;;;;17.35;58.28;100555.88;2093935;28;19908;-44
2022/01/01 04:33:58;;;;;;;;;;;;;;;17.35;58.39;100553.13;2095135;28;20399;-44
2022/01/01 04:34:58;;;;;;;;;;;;;;;17.35;58.26;100550.41;2090990;28;20341;-44
2022/01/01 04:35:59;;;;;;;;;;;;;;;17.34;58.26;100552.28;2084280;28;20005;-44
2022/01/01 04:37:06;;;;;;;;;;;;;;;17.35;58.22;100558.59;2086165;28;19959;-44
2022/01/01 04:38:14;;;;;;;;;;;;;;;17.34;58.34;100549.56;2083983;28;19912;-44
2022/01/01 04:39:15;;;;;;;;;;;;;;;17.34;58.34;100549.56;2085241;28;20246;-45
2022/01/01 04:40:15;;;;;;;;;;;;;;;17.33;58.36;100549.66;2094237;28;20069;-44
2022/01/01 04:41:16;;;;;;;;;;;;;;;17.34;58.24;100551.38;2089278;28;19917;-45
2022/01/01 04:42:17;;;;;;;;;;;;;;;17.34;58.23;100554.09;2087255;28;19928;-44
2022/01/01 04:43:17;;;;;;;;;;;;;;;17.34;58.38;100545.94;2094520;28;19968;-44
2022/01/01 04:44:17;;;;;;;;;;;;;;;17.34;58.24;100554.09;2092238;28;19946;-44
2022/01/01 04:45:18;;;;;;;;;;;;;;;17.34;58.33;100551.38;2094317;28;19951;-43
2022/01/01 04:46:18;;;;;;;;;;;;;;;17.33;58.06;100558.69;2095353;28;20246;-43
2022/01/01 04:47:18;;;;;;;;;;;;;;;17.33;58.21;100549.66;2092535;28;19920;-44
2022/01/01 04:48:19;;;;;;;;;;;;;;;17.32;58.33;100547.91;2095060;28;20705;-44
2022/01/01 04:49:19;;;;;;;;;;;;;;;17.32;58.10;100550.66;2092336;28;19916;-44
2022/01/01 04:50:20;;;;;;;;;;;;;;;17.32;58.24;100540.63;2095264;28;19957;-44
2022/01/01 04:51:20;;;;;;;;;;;;;;;17.32;58.27;100550.66;2094211;28;20643;-44
2022/01/01 04:52:20;;;;;;;;;;;;;;;17.33;58.09;100552.41;2094961;28;20043;-44
2022/01/01 04:53:20;;;;;;;;;;;;;;;17.31;58.19;100548.94;2094959;28;20215;-44
2022/01/01 04:54:21;;;;;;;;;;;;;;;17.32;58.37;100550.66;2092818;28;19923;-45
2022/01/01 04:55:23;;;;;;;;;;;;;;;17.32;58.24;100545.19;2094643;28;20318;-45
2022/01/01 04:56:23;;;;;;;;;;;;;;;17.32;58.12;100550.66;2095179;28;19912;-44
2022/01/01 04:57:29;;;;;;;;;;;;;;;17.31;58.24;100555.22;2092151;28;20396;-43
2022/01/01 04:58:30;;;;;;;;;;;;;;;17.31;58.12;100554.38;2093916;28;19933;-45
2022/01/01 04:59:30;;;;;;;;;;;;;;;17.31;58.25;100554.38;2093271;28;20291;-44
2022/01/01 05:00:31;;;;;;;;;;;;;;;17.31;58.25;100548.94;2092318;28;19920;-45
2022/01/01 05:01:31;;;;;;;;;;;;;;;17.31;58.14;100555.22;2096768;28;19916;-44
2022/01/01 05:02:31;;;;;;;;;;;;;;;17.30;58.18;100549.94;2092380;28;19916;-44
2022/01/01 05:03:32;;;;;;;;;;;;;;;17.30;58.26;100548.06;2093199;28;20329;-44
2022/01/01 05:04:32;;;;;;;;;;;;;;;17.30;58.25;100547.22;2094521;28;19917;-44
2022/01/01 05:05:33;;;;;;;;;;;;;;;17.31;57.99;100548.94;2091981;28;19924;-43
2022/01/01 05:06:33;;;;;;;;;;;;;;;17.30;58.09;100552.66;2094927;28;19927;-44
2022/01/01 05:07:33;;;;;;;;;;;;;;;17.30;58.11;100558.97;2092209;28;20011;-44
2022/01/01 05:08:34;;;;;;;;;;;;;;;17.30;57.90;100552.66;2093670;28;19976;-44
2022/01/01 05:09:34;;;;;;;;;;;;;;;17.29;58.14;100557.22;2087285;28;19916;-43
2022/01/01 05:10:35;;;;;;;;;;;;;;;17.30;58.07;100558.09;2088926;28;20302;-44
2022/01/01 05:11:35;;;;;;;;;;;;;;;17.30;58.24;100563.56;2093576;28;19928;-44
2022/01/01 05:12:36;;;;;;;;;;;;;;;17.29;58.29;100567.25;2093572;28;20393;-44
2022/01/01 05:13:36;;;;;;;;;;;;;;;17.30;58.00;100552.66;2092328;28;20255;-44
2022/01/01 05:14:36;;;;;;;;;;;;;;;17.29;58.00;100559.09;2092440;28;20353;-44